Time;durP1;ratioP1;P1;durP2;ratioP2;P2;SDS_P1;SDS_P2;PMS_P1;PMS_P2;Temp;Humidity;BMP_temperature;BMP_pressure;BME280_temperature;BME280_humidity;BME280_pressure;Samples;Min_cycle;Max_cycle;Signal;HPM_P1;HPM_P2
2022/12/17 13:06:37;;;;;;;70.17;36.70;;;;;;;;;;5069111;28;20279;-63
2022/12/17 13:09:15;;;;;;;67.47;34.57;;;;;;;;;;5061536;28;20301;-63
2022/12/17 13:11:45;;;;;;;71.37;33.20;;;;;;;;;;5051476;28;20287;-64
2022/12/17 13:14:17;;;;;;;71.63;34.43;;;;;;;;;;5049686;28;20287;-63
2022/12/17 13:16:46;;;;;;;70.50;35.73;;;;;;;;;;5051474;28;20049;-63
2022/12/17 13:19:17;;;;;;;72.20;35.43;;;;;;;;;;5051332;28;20052;-64
2022/12/17 13:21:43;;;;;;;64.33;33.13;;;;;;;;;;5051236;28;20850;-63
2022/12/17 13:24:10;;;;;;;75.53;36.00;;;;;;;;;;5051117;28;20326;-63
2022/12/17 13:26:39;;;;;;;67.77;33.33;;;;;;;;;;5050860;28;20288;-63
2022/12/17 13:29:19;;;;;;;65.07;34.57;;;;;;;;;;5051016;28;20287;-63
2022/12/17 13:31:56;;;;;;;66.27;34.13;;;;;;;;;;5050991;28;20288;-63
2022/12/17 13:34:25;;;;;;;72.23;33.87;;;;;;;;;;5051185;28;20296;-63
2022/12/17 13:36:54;;;;;;;62.23;31.20;;;;;;;;;;5051121;28;20292;-63
2022/12/17 13:39:30;;;;;;;67.43;31.83;;;;;;;;;;5049694;28;20310;-63
2022/12/17 13:41:56;;;;;;;64.97;31.40;;;;;;;;;;5051212;28;20310;-63
2022/12/17 13:44:22;;;;;;;68.47;32.13;;;;;;;;;;5050774;28;20311;-63
2022/12/17 13:46:49;;;;;;;72.90;36.43;;;;;;;;;;5050974;28;20373;-63
2022/12/17 13:49:33;;;;;;;70.77;32.90;;;;;;;;;;5050745;28;20298;-63
2022/12/17 13:52:05;;;;;;;75.17;34.20;;;;;;;;;;5050776;28;20138;-64
2022/12/17 13:54:31;;;;;;;76.93;34.77;;;;;;;;;;5049920;28;20292;-63
2022/12/17 13:57:07;;;;;;;70.13;31.03;;;;;;;;;;5050708;28;20294;-63
2022/12/17 13:59:33;;;;;;;74.70;35.57;;;;;;;;;;5050509;28;20299;-63
2022/12/17 14:01:59;;;;;;;69.13;34.10;;;;;;;;;;5051434;28;20287;-63
2022/12/17 14:04:26;;;;;;;67.73;32.17;;;;;;;;;;5066023;28;20338;-63
2022/12/17 14:06:53;;;;;;;76.43;33.77;;;;;;;;;;5069834;28;20370;-63
2022/12/17 14:09:21;;;;;;;70.80;33.53;;;;;;;;;;5071094;28;20282;-63
2022/12/17 14:14:40;;;;;;;73.90;35.37;;;;;;;;;;5054535;28;20288;-63
2022/12/17 14:17:06;;;;;;;;;;;;;;;;;;5050852;28;20295;-63
2022/12/17 14:19:32;;;;;;;75.57;35.10;;;;;;;;;;5051059;28;19966;-63
2022/12/17 14:21:59;;;;;;;74.13;33.77;;;;;;;;;;5051346;28;20563;-63
2022/12/17 14:24:28;;;;;;;72.37;34.03;;;;;;;;;;5050199;28;20322;-63
2022/12/17 14:26:58;;;;;;;76.87;35.73;;;;;;;;;;5050532;28;20300;-63
2022/12/17 14:29:24;;;;;;;75.43;33.27;;;;;;;;;;5050676;28;20295;-63
2022/12/17 14:31:52;;;;;;;80.73;36.20;;;;;;;;;;5050748;28;20325;-63
2022/12/17 14:34:18;;;;;;;72.27;34.03;;;;;;;;;;5050599;28;20306;-63
2022/12/17 14:36:45;;;;;;;72.77;33.73;;;;;;;;;;5050259;28;20738;-63
2022/12/17 14:39:31;;;;;;;81.63;37.77;;;;;;;;;;5050563;28;20057;-62
2022/12/17 14:44:50;;;;;;;75.83;33.43;;;;;;;;;;5049950;28;20311;-63
2022/12/17 14:47:16;;;;;;;;;;;;;;;;;;5050907;28;20329;-63
2022/12/17 14:49:54;;;;;;;79.47;34.83;;;;;;;;;;5049441;28;19921;-64
2022/12/17 14:52:34;;;;;;;80.63;35.20;;;;;;;;;;5048462;28;20049;-63
2022/12/17 14:55:01;;;;;;;74.23;33.00;;;;;;;;;;5048370;28;20650;-63
2022/12/17 14:57:27;;;;;;;86.40;36.33;;;;;;;;;;5050240;28;20307;-63
2022/12/17 14:59:53;;;;;;;82.47;35.53;;;;;;;;;;5049562;28;20801;-63
2022/12/17 15:02:24;;;;;;;80.93;34.13;;;;;;;;;;5065858;28;20087;-63
2022/12/17 15:04:52;;;;;;;80.70;34.43;;;;;;;;;;5070335;28;20917;-62
2022/12/17 15:07:22;;;;;;;76.97;34.47;;;;;;;;;;5068800;28;20356;-63
2022/12/17 15:09:48;;;;;;;84.60;35.90;;;;;;;;;;5069716;28;20382;-63
2022/12/17 15:12:14;;;;;;;83.73;34.87;;;;;;;;;;5069832;28;20855;-63
2022/12/17 15:14:40;;;;;;;83.63;33.70;;;;;;;;;;5069309;28;20047;-63
2022/12/17 15:17:06;;;;;;;79.47;32.47;;;;;;;;;;5052399;28;20287;-63
2022/12/17 15:19:32;;;;;;;86.50;37.20;;;;;;;;;;5050046;28;20521;-63
2022/12/17 15:21:58;;;;;;;90.60;37.20;;;;;;;;;;5049620;28;20073;-63
2022/12/17 15:24:24;;;;;;;88.30;35.70;;;;;;;;;;5031770;28;20049;-63
2022/12/17 15:26:50;;;;;;;83.17;34.97;;;;;;;;;;5064084;28;20286;-63
2022/12/17 15:29:16;;;;;;;84.30;36.20;;;;;;;;;;5068332;28;20290;-63
2022/12/17 15:31:42;;;;;;;84.53;36.43;;;;;;;;;;5069303;28;20282;-63
2022/12/17 15:34:10;;;;;;;80.97;33.77;;;;;;;;;;5069330;28;20816;-63
2022/12/17 15:36:36;;;;;;;89.77;36.90;;;;;;;;;;5057511;28;20341;-63
2022/12/17 15:39:05;;;;;;;92.27;35.53;;;;;;;;;;5049265;28;20280;-63
2022/12/17 15:44:15;;;;;;;87.80;36.50;;;;;;;;;;5048649;28;20398;-62
2022/12/17 15:46:41;;;;;;;98.33;38.10;;;;;;;;;;5049195;28;20375;-63
2022/12/17 15:49:07;;;;;;;80.57;33.27;;;;;;;;;;5048968;28;20080;-63
2022/12/17 15:51:33;;;;;;;91.40;38.03;;;;;;;;;;5047244;28;20338;-63
2022/12/17 15:53:59;;;;;;;94.07;38.80;;;;;;;;;;5031469;28;20048;-63
2022/12/17 15:56:26;;;;;;;87.60;35.23;;;;;;;;;;5049063;28;20284;-62
2022/12/17 15:58:53;;;;;;;88.50;36.40;;;;;;;;;;5049076;28;20048;-62
2022/12/17 16:01:19;;;;;;;85.20;32.47;;;;;;;;;;5049090;28;20299;-63
2022/12/17 16:03:45;;;;;;;89.77;34.93;;;;;;;;;;5048907;28;20337;-63
2022/12/17 16:06:11;;;;;;;86.60;35.07;;;;;;;;;;5049162;28;20820;-62
2022/12/17 16:08:38;;;;;;;93.10;37.20;;;;;;;;;;5049374;28;20769;-63
2022/12/17 16:11:08;;;;;;;91.93;36.40;;;;;;;;;;5048971;28;20337;-62
2022/12/17 16:13:34;;;;;;;81.17;34.77;;;;;;;;;;5048952;28;20326;-62
2022/12/17 16:16:00;;;;;;;96.47;36.17;;;;;;;;;;5048796;28;20295;-62
2022/12/17 16:18:26;;;;;;;95.70;35.70;;;;;;;;;;5048421;28;20319;-63
2022/12/17 16:20:52;;;;;;;104.57;35.07;;;;;;;;;;5048928;28;20777;-63
2022/12/17 16:23:19;;;;;;;103.47;38.13;;;;;;;;;;5048728;28;20646;-62
2022/12/17 16:25:45;;;;;;;93.23;37.30;;;;;;;;;;5048688;28;20312;-63
2022/12/17 16:28:11;;;;;;;107.40;36.33;;;;;;;;;;5048707;28;20292;-62
2022/12/17 16:30:37;;;;;;;105.20;37.67;;;;;;;;;;5047944;28;20847;-63
2022/12/17 16:33:03;;;;;;;96.73;37.03;;;;;;;;;;5048785;28;20753;-63
2022/12/17 16:35:29;;;;;;;95.63;34.33;;;;;;;;;;5048640;28;20322;-62
2022/12/17 16:37:55;;;;;;;97.07;36.20;;;;;;;;;;5048851;28;20283;-62
2022/12/17 16:40:21;;;;;;;102.50;35.73;;;;;;;;;;5048468;28;20370;-62
2022/12/17 16:42:47;;;;;;;95.57;38.43;;;;;;;;;;5067159;28;20298;-62
2022/12/17 16:45:13;;;;;;;100.27;34.97;;;;;;;;;;5065764;28;20327;-62
2022/12/17 16:47:39;;;;;;;103.23;37.53;;;;;;;;;;5068850;28;20289;-63
2022/12/17 16:50:05;;;;;;;99.23;38.30;;;;;;;;;;5068275;28;20850;-63
2022/12/17 16:52:31;;;;;;;92.63;37.00;;;;;;;;;;5069073;28;20362;-62
2022/12/17 16:54:58;;;;;;;98.23;35.93;;;;;;;;;;5067935;28;20337;-63
2022/12/17 16:57:24;;;;;;;91.43;33.37;;;;;;;;;;5050392;28;20306;-63
2022/12/17 16:59:50;;;;;;;92.00;32.87;;;;;;;;;;5048391;28;20800;-63
2022/12/17 17:02:16;;;;;;;99.47;36.33;;;;;;;;;;5048133;28;20630;-63
2022/12/17 17:04:43;;;;;;;96.73;37.70;;;;;;;;;;5048660;28;20335;-63
2022/12/17 17:07:09;;;;;;;97.80;36.20;;;;;;;;;;5048489;28;20041;-62
2022/12/17 17:09:35;;;;;;;103.67;37.50;;;;;;;;;;5048279;28;20288;-63
2022/12/17 17:12:01;;;;;;;94.53;37.73;;;;;;;;;;5062949;28;20295;-62
2022/12/17 17:14:27;;;;;;;96.40;36.47;;;;;;;;;;5067201;28;20051;-62
2022/12/17 17:16:53;;;;;;;86.30;34.43;;;;;;;;;;5067567;28;20298;-63
2022/12/17 17:19:19;;;;;;;77.67;31.37;;;;;;;;;;5067836;28;20286;-62
2022/12/17 17:21:51;;;;;;;88.90;34.80;;;;;;;;;;5066858;28;20305;-62
2022/12/17 17:24:19;;;;;;;103.40;38.60;;;;;;;;;;5066873;28;20299;-63
2022/12/17 17:26:46;;;;;;;95.67;37.80;;;;;;;;;;5050068;28;20755;-63
2022/12/17 17:29:12;;;;;;;94.23;36.63;;;;;;;;;;5047483;28;20287;-63
2022/12/17 17:31:38;;;;;;;95.57;37.10;;;;;;;;;;5047306;28;20355;-63
2022/12/17 17:34:09;;;;;;;101.17;38.50;;;;;;;;;;5047577;28;20322;-63
2022/12/17 17:36:35;;;;;;;94.10;37.10;;;;;;;;;;5047648;28;20824;-63
2022/12/17 17:39:01;;;;;;;93.77;36.47;;;;;;;;;;5046998;28;20341;-62
2022/12/17 17:41:29;;;;;;;101.40;40.03;;;;;;;;;;5047796;28;20669;-62
2022/12/17 17:43:59;;;;;;;96.40;38.33;;;;;;;;;;5046993;28;20291;-62
2022/12/17 17:46:26;;;;;;;89.30;35.60;;;;;;;;;;5047652;28;20291;-63
2022/12/17 17:48:52;;;;;;;94.53;36.20;;;;;;;;;;5047058;28;20295;-62
2022/12/17 17:51:20;;;;;;;85.80;37.90;;;;;;;;;;5047335;28;21344;-63
2022/12/17 17:53:47;;;;;;;93.03;36.43;;;;;;;;;;5069657;28;20340;-62
2022/12/17 17:56:15;;;;;;;99.70;38.10;;;;;;;;;;5070956;28;20672;-62
2022/12/17 17:58:42;;;;;;;100.57;39.93;;;;;;;;;;5070895;28;20901;-62
2022/12/17 18:01:12;;;;;;;95.23;40.53;;;;;;;;;;5070306;28;20285;-62
2022/12/17 18:03:38;;;;;;;89.63;36.90;;;;;;;;;;5071395;28;20315;-62
2022/12/17 18:06:06;;;;;;;89.30;37.27;;;;;;;;;;5070357;28;20318;-62
2022/12/17 18:08:32;;;;;;;91.93;36.07;;;;;;;;;;5068058;28;20805;-62
2022/12/17 18:10:59;;;;;;;103.30;42.00;;;;;;;;;;5070684;28;20279;-63
2022/12/17 18:16:10;;;;;;;93.83;35.33;;;;;;;;;;5070585;28;20279;-62
2022/12/17 18:18:36;;;;;;;94.83;38.80;;;;;;;;;;5070709;28;20348;-62
2022/12/17 18:21:06;;;;;;;102.53;40.60;;;;;;;;;;5056959;28;20292;-62
2022/12/17 18:23:33;;;;;;;97.03;38.60;;;;;;;;;;5050008;28;20291;-63
2022/12/17 18:26:05;;;;;;;94.03;37.57;;;;;;;;;;5048937;28;20877;-62
2022/12/17 18:28:31;;;;;;;102.13;44.13;;;;;;;;;;5050394;28;20404;-62
2022/12/17 18:30:57;;;;;;;108.97;44.37;;;;;;;;;;5049871;28;20361;-63
2022/12/17 18:33:24;;;;;;;104.73;40.83;;;;;;;;;;5050126;28;20280;-63
2022/12/17 18:35:50;;;;;;;98.77;41.00;;;;;;;;;;5062509;28;20282;-62
2022/12/17 18:38:16;;;;;;;90.20;37.90;;;;;;;;;;5069136;28;20291;-63
2022/12/17 18:40:42;;;;;;;98.73;40.80;;;;;;;;;;5069823;28;20306;-62
2022/12/17 18:43:24;;;;;;;97.87;42.10;;;;;;;;;;5070005;28;20309;-63
2022/12/17 18:45:51;;;;;;;94.60;37.03;;;;;;;;;;5070049;28;20368;-63
2022/12/17 18:48:17;;;;;;;87.80;41.33;;;;;;;;;;5069231;28;20336;-63
2022/12/17 18:50:43;;;;;;;106.73;41.03;;;;;;;;;;5053513;28;20300;-63
2022/12/17 18:53:09;;;;;;;95.73;42.43;;;;;;;;;;5049817;28;20378;-62
2022/12/17 18:55:39;;;;;;;99.17;41.20;;;;;;;;;;5050011;28;20292;-63
2022/12/17 18:58:05;;;;;;;94.63;43.77;;;;;;;;;;5049587;28;20340;-63
2022/12/17 19:00:31;;;;;;;92.43;42.50;;;;;;;;;;5049376;28;20290;-62
2022/12/17 19:03:00;;;;;;;100.23;41.63;;;;;;;;;;5049693;28;20764;-63
2022/12/17 19:05:26;;;;;;;99.80;42.93;;;;;;;;;;5049970;28;20339;-62
2022/12/17 19:07:52;;;;;;;90.73;39.50;;;;;;;;;;5049688;28;20785;-62
2022/12/17 19:10:18;;;;;;;101.47;42.77;;;;;;;;;;5049300;28;20280;-63
2022/12/17 19:12:44;;;;;;;98.80;40.90;;;;;;;;;;5049700;28;20286;-63
2022/12/17 19:15:10;;;;;;;97.60;41.67;;;;;;;;;;5049371;28;20491;-62
2022/12/17 19:17:36;;;;;;;84.43;36.87;;;;;;;;;;5063458;28;20313;-63
2022/12/17 19:20:03;;;;;;;101.47;42.93;;;;;;;;;;5069369;28;20294;-63
2022/12/17 19:22:29;;;;;;;86.53;39.80;;;;;;;;;;5068714;28;20352;-62
2022/12/17 19:24:55;;;;;;;89.10;40.83;;;;;;;;;;5069351;28;20322;-62
2022/12/17 19:27:21;;;;;;;96.90;41.27;;;;;;;;;;5069504;28;20287;-63
2022/12/17 19:29:47;;;;;;;93.63;42.20;;;;;;;;;;5067610;28;20340;-62
2022/12/17 19:32:13;;;;;;;90.23;37.07;;;;;;;;;;5055031;28;20049;-63
2022/12/17 19:34:39;;;;;;;84.20;37.13;;;;;;;;;;5048995;28;20287;-63
2022/12/17 19:37:05;;;;;;;93.17;41.27;;;;;;;;;;5049251;28;20284;-63
2022/12/17 19:39:31;;;;;;;93.93;39.77;;;;;;;;;;5049064;28;20291;-62
2022/12/17 19:41:57;;;;;;;96.90;42.67;;;;;;;;;;5048849;28;20291;-62
2022/12/17 19:44:23;;;;;;;107.47;42.57;;;;;;;;;;5048940;28;20292;-62
2022/12/17 19:46:50;;;;;;;100.10;44.63;;;;;;;;;;5062042;28;20291;-62
2022/12/17 19:49:16;;;;;;;99.60;41.83;;;;;;;;;;5068376;28;20283;-63
2022/12/17 19:51:43;;;;;;;94.60;43.33;;;;;;;;;;5068555;28;20735;-63
2022/12/17 19:54:11;;;;;;;97.03;41.50;;;;;;;;;;5068753;28;20322;-62
2022/12/17 19:56:37;;;;;;;94.20;39.77;;;;;;;;;;5068776;28;20287;-62
2022/12/17 19:59:05;;;;;;;97.90;40.40;;;;;;;;;;5063770;28;20299;-63
2022/12/17 20:01:33;;;;;;;101.57;39.80;;;;;;;;;;5049143;28;20344;-62
2022/12/17 20:03:59;;;;;;;93.10;39.93;;;;;;;;;;5048232;28;20299;-62
2022/12/17 20:06:27;;;;;;;105.20;42.97;;;;;;;;;;5048514;28;20397;-62
2022/12/17 20:08:53;;;;;;;98.73;41.60;;;;;;;;;;5048550;28;20287;-63
2022/12/17 20:11:32;;;;;;;109.27;44.10;;;;;;;;;;5048165;28;20344;-63
2022/12/17 20:13:59;;;;;;;102.23;42.20;;;;;;;;;;5048399;28;20347;-63
2022/12/17 20:16:26;;;;;;;93.90;41.63;;;;;;;;;;5057877;28;20351;-63
2022/12/17 20:18:52;;;;;;;96.20;40.50;;;;;;;;;;5068505;28;20286;-63
2022/12/17 20:21:18;;;;;;;105.17;43.60;;;;;;;;;;5067734;28;20312;-63
2022/12/17 20:23:50;;;;;;;102.80;43.80;;;;;;;;;;5068389;28;20642;-62
2022/12/17 20:26:16;;;;;;;106.27;43.73;;;;;;;;;;5068156;28;20650;-63
2022/12/17 20:28:43;;;;;;;107.67;41.03;;;;;;;;;;5062602;28;20283;-62
2022/12/17 20:31:09;;;;;;;104.23;41.43;;;;;;;;;;5048082;28;20863;-62
2022/12/17 20:33:36;;;;;;;107.80;44.57;;;;;;;;;;5047941;28;20645;-62
2022/12/17 20:36:03;;;;;;;115.37;42.83;;;;;;;;;;5048149;28;20295;-62
2022/12/17 20:38:29;;;;;;;125.77;47.87;;;;;;;;;;5048238;28;20280;-63
2022/12/17 20:40:55;;;;;;;114.30;43.60;;;;;;;;;;5048323;28;20428;-63
2022/12/17 20:43:21;;;;;;;122.20;44.63;;;;;;;;;;5048178;28;20300;-62
2022/12/17 20:45:53;;;;;;;123.33;46.73;;;;;;;;;;5047449;28;20724;-62
2022/12/17 20:48:20;;;;;;;123.53;47.00;;;;;;;;;;5048116;28;20315;-63
2022/12/17 20:50:46;;;;;;;142.43;49.30;;;;;;;;;;5046873;28;20299;-62
2022/12/17 20:53:12;;;;;;;131.40;46.00;;;;;;;;;;5047700;28;20299;-62
2022/12/17 20:55:38;;;;;;;126.37;47.43;;;;;;;;;;5054109;28;20743;-62
2022/12/17 20:58:04;;;;;;;131.93;47.10;;;;;;;;;;5055192;28;20471;-62
2022/12/17 21:00:30;;;;;;;136.53;50.17;;;;;;;;;;5066964;28;20346;-62
2022/12/17 21:02:56;;;;;;;134.93;45.47;;;;;;;;;;5066790;28;20374;-63
2022/12/17 21:05:22;;;;;;;121.87;42.37;;;;;;;;;;5049781;28;20390;-63
2022/12/17 21:07:50;;;;;;;121.33;44.87;;;;;;;;;;5047290;28;20045;-62
2022/12/17 21:10:16;;;;;;;116.00;40.17;;;;;;;;;;5050125;28;21388;-63
2022/12/17 21:15:27;;;;;;;103.30;38.73;;;;;;;;;;5062097;28;20291;-63
2022/12/17 21:17:53;;;;;;;108.43;39.23;;;;;;;;;;5064859;28;20297;-62
2022/12/17 21:20:19;;;;;;;105.50;39.10;;;;;;;;;;5053047;28;20303;-63
2022/12/17 21:22:45;;;;;;;118.53;40.73;;;;;;;;;;5066349;28;20290;-62
2022/12/17 21:25:11;;;;;;;98.33;38.73;;;;;;;;;;5066277;28;20306;-63
2022/12/17 21:27:37;;;;;;;110.40;40.23;;;;;;;;;;5065958;28;20290;-62
2022/12/17 21:30:03;;;;;;;98.97;38.77;;;;;;;;;;5070416;28;20298;-62
2022/12/17 21:32:30;;;;;;;113.20;40.53;;;;;;;;;;5067407;28;20800;-63
2022/12/17 21:34:56;;;;;;;112.77;39.43;;;;;;;;;;5071695;28;20332;-62
2022/12/17 21:37:22;;;;;;;113.40;41.47;;;;;;;;;;5069858;28;20768;-63
2022/12/17 21:39:48;;;;;;;107.07;39.67;;;;;;;;;;5070987;28;20657;-63
2022/12/17 21:44:59;;;;;;;114.53;39.83;;;;;;;;;;5068586;28;20353;-62
2022/12/17 21:47:25;;;;;;;109.23;39.73;;;;;;;;;;5070101;28;20819;-62
2022/12/17 21:49:51;;;;;;;120.40;43.50;;;;;;;;;;5070425;28;20652;-62
2022/12/17 21:52:18;;;;;;;114.30;41.17;;;;;;;;;;5068783;28;20303;-62
2022/12/17 21:54:44;;;;;;;123.83;42.23;;;;;;;;;;5068466;28;20309;-62
2022/12/17 21:57:10;;;;;;;114.47;39.17;;;;;;;;;;5069495;28;20287;-62
2022/12/17 21:59:36;;;;;;;124.10;42.03;;;;;;;;;;5070524;28;20282;-63
2022/12/17 22:02:02;;;;;;;116.63;38.63;;;;;;;;;;5069539;28;20790;-63
2022/12/17 22:04:28;;;;;;;108.40;39.10;;;;;;;;;;5071106;28;20677;-62
2022/12/17 22:06:54;;;;;;;107.43;35.50;;;;;;;;;;5068619;28;20290;-63
2022/12/17 22:09:20;;;;;;;119.90;41.80;;;;;;;;;;5060884;28;20306;-62
2022/12/17 22:11:46;;;;;;;117.63;44.00;;;;;;;;;;5066165;28;20361;-62
2022/12/17 22:14:13;;;;;;;118.73;38.47;;;;;;;;;;5070279;28;20649;-63
2022/12/17 22:16:45;;;;;;;120.77;39.97;;;;;;;;;;5069069;28;20287;-62
2022/12/17 22:19:13;;;;;;;135.30;41.95;;;;;;;;;;5070068;28;20796;-63
2022/12/17 22:21:41;;;;;;;132.20;44.10;;;;;;;;;;5068917;28;20040;-63
2022/12/17 22:24:07;;;;;;;141.23;45.47;;;;;;;;;;5071393;28;20286;-63
2022/12/17 22:26:34;;;;;;;152.80;41.97;;;;;;;;;;5052874;28;20394;-63
2022/12/17 22:29:00;;;;;;;127.33;37.03;;;;;;;;;;5063135;28;20780;-63
2022/12/17 22:34:12;;;;;;;140.13;41.63;;;;;;;;;;5067710;28;20646;-63
2022/12/17 22:36:38;;;;;;;115.67;39.17;;;;;;;;;;5070240;28;20318;-62
2022/12/17 22:39:06;;;;;;;114.83;37.43;;;;;;;;;;5068546;28;20378;-63
2022/12/17 22:44:17;;;;;;;113.80;35.17;;;;;;;;;;5067403;28;20303;-63
2022/12/17 22:46:43;;;;;;;101.03;33.47;;;;;;;;;;5067965;28;20295;-63
2022/12/17 22:49:09;;;;;;;118.63;38.13;;;;;;;;;;5049885;28;20299;-63
2022/12/17 22:51:35;;;;;;;127.27;43.93;;;;;;;;;;5067025;28;20287;-63
2022/12/17 22:54:03;;;;;;;111.80;38.93;;;;;;;;;;5068627;28;20352;-63
2022/12/17 22:56:29;;;;;;;107.70;37.37;;;;;;;;;;5069773;28;20287;-63
2022/12/17 22:58:55;;;;;;;98.40;35.30;;;;;;;;;;5069376;28;20803;-62
2022/12/17 23:01:21;;;;;;;102.80;36.23;;;;;;;;;;5070011;28;20298;-63
2022/12/17 23:03:47;;;;;;;111.43;37.63;;;;;;;;;;5066100;28;20295;-63
2022/12/17 23:06:17;;;;;;;109.90;37.63;;;;;;;;;;5056456;28;20760;-63
2022/12/17 23:08:43;;;;;;;110.87;37.50;;;;;;;;;;5069580;28;20428;-62
2022/12/17 23:11:11;;;;;;;114.73;38.93;;;;;;;;;;5068989;28;20295;-63
2022/12/17 23:13:37;;;;;;;116.87;35.73;;;;;;;;;;5069005;28;20291;-62
2022/12/17 23:16:04;;;;;;;123.23;41.47;;;;;;;;;;5069769;28;20286;-63
2022/12/17 23:18:31;;;;;;;120.97;36.33;;;;;;;;;;5065054;28;20302;-63
2022/12/17 23:21:04;;;;;;;129.83;42.27;;;;;;;;;;5068403;28;20295;-63
2022/12/17 23:23:30;;;;;;;137.35;40.30;;;;;;;;;;5069733;28;20293;-63
2022/12/17 23:25:57;;;;;;;144.60;42.90;;;;;;;;;;5065974;28;20048;-63
2022/12/17 23:28:22;;;;;;;121.97;39.10;;;;;;;;;;5067806;28;20044;-63
2022/12/17 23:30:48;;;;;;;111.40;38.27;;;;;;;;;;5067160;28;20697;-63
2022/12/17 23:33:14;;;;;;;120.27;35.50;;;;;;;;;;5068985;28;20045;-63
2022/12/17 23:35:40;;;;;;;111.93;35.97;;;;;;;;;;5067086;28;20286;-63
2022/12/17 23:38:07;;;;;;;129.07;39.00;;;;;;;;;;5068587;28;20314;-63
2022/12/17 23:40:33;;;;;;;125.83;42.50;;;;;;;;;;5069003;28;20043;-63
2022/12/17 23:42:59;;;;;;;136.20;42.93;;;;;;;;;;5060376;28;20844;-63
2022/12/17 23:45:25;;;;;;;122.00;38.00;;;;;;;;;;5060253;28;20325;-63
2022/12/17 23:47:51;;;;;;;125.83;38.17;;;;;;;;;;5052015;28;20367;-63
2022/12/17 23:50:17;;;;;;;128.23;41.67;;;;;;;;;;5065262;28;20428;-63
2022/12/17 23:52:43;;;;;;;110.07;36.37;;;;;;;;;;5069228;28;20141;-63
2022/12/17 23:55:10;;;;;;;113.40;38.33;;;;;;;;;;5067146;28;20287;-63
2022/12/17 23:57:36;;;;;;;110.23;37.87;;;;;;;;;;5068799;28;20890;-63
